sensor_id;sensor_type;location;lat;lon;timestamp;P1;durP1;ratioP1;P2;durP2;ratioP2
20619;SDS011;10469;42.720;23.252;2023-11-19T00:02:18;3.42;;;3.13;;
20619;SDS011;10469;42.720;23.252;2023-11-19T00:04:44;3.50;;;3.20;;
20619;SDS011;10469;42.720;23.252;2023-11-19T00:07:09;4.15;;;3.35;;
20619;SDS011;10469;42.720;23.252;2023-11-19T00:09:37;2.90;;;2.70;;
20619;SDS011;10469;42.720;23.252;2023-11-19T00:12:05;3.70;;;2.83;;
20619;SDS011;10469;42.720;23.252;2023-11-19T00:14:31;3.65;;;2.88;;
20619;SDS011;10469;42.720;23.252;2023-11-19T00:16:58;3.03;;;2.72;;
20619;SDS011;10469;42.720;23.252;2023-11-19T00:19:24;3.35;;;3.05;;
20619;SDS011;10469;42.720;23.252;2023-11-19T00:21:50;2.75;;;2.55;;
20619;SDS011;10469;42.720;23.252;2023-11-19T00:24:16;3.13;;;2.92;;
20619;SDS011;10469;42.720;23.252;2023-11-19T00:26:42;3.83;;;3.28;;
20619;SDS011;10469;42.720;23.252;2023-11-19T00:29:08;3.20;;;3.00;;
20619;SDS011;10469;42.720;23.252;2023-11-19T00:31:33;3.45;;;3.13;;
20619;SDS011;10469;42.720;23.252;2023-11-19T00:33:59;4.15;;;3.05;;
20619;SDS011;10469;42.720;23.252;2023-11-19T00:36:26;3.25;;;3.05;;
20619;SDS011;10469;42.720;23.252;2023-11-19T00:38:52;5.47;;;3.47;;
20619;SDS011;10469;42.720;23.252;2023-11-19T00:41:17;3.75;;;3.42;;
20619;SDS011;10469;42.720;23.252;2023-11-19T00:43:43;4.32;;;3.22;;
20619;SDS011;10469;42.720;23.252;2023-11-19T00:46:10;4.22;;;3.17;;
20619;SDS011;10469;42.720;23.252;2023-11-19T00:48:39;3.60;;;3.30;;
20619;SDS011;10469;42.720;23.252;2023-11-19T00:51:05;3.42;;;3.17;;
20619;SDS011;10469;42.720;23.252;2023-11-19T00:53:31;3.75;;;3.30;;
20619;SDS011;10469;42.720;23.252;2023-11-19T00:56:00;3.40;;;3.10;;
20619;SDS011;10469;42.720;23.252;2023-11-19T00:58:25;4.97;;;2.90;;
20619;SDS011;10469;42.720;23.252;2023-11-19T01:00:54;4.28;;;3.50;;
20619;SDS011;10469;42.720;23.252;2023-11-19T01:03:20;3.47;;;3.17;;
20619;SDS011;10469;42.720;23.252;2023-11-19T01:05:45;3.42;;;3.13;;
20619;SDS011;10469;42.720;23.252;2023-11-19T01:08:12;3.42;;;3.00;;
20619;SDS011;10469;42.720;23.252;2023-11-19T01:10:38;3.22;;;2.97;;
20619;SDS011;10469;42.720;23.252;2023-11-19T01:13:03;3.35;;;3.03;;
20619;SDS011;10469;42.720;23.252;2023-11-19T01:15:31;3.30;;;3.00;;
20619;SDS011;10469;42.720;23.252;2023-11-19T01:17:57;3.42;;;3.13;;
20619;SDS011;10469;42.720;23.252;2023-11-19T01:20:23;3.00;;;2.80;;
20619;SDS011;10469;42.720;23.252;2023-11-19T01:22:49;2.88;;;2.67;;
20619;SDS011;10469;42.720;23.252;2023-11-19T01:25:16;3.25;;;2.95;;
20619;SDS011;10469;42.720;23.252;2023-11-19T01:27:41;3.22;;;2.92;;
20619;SDS011;10469;42.720;23.252;2023-11-19T01:30:08;3.45;;;3.10;;
20619;SDS011;10469;42.720;23.252;2023-11-19T01:32:40;3.27;;;3.07;;
20619;SDS011;10469;42.720;23.252;2023-11-19T01:35:05;3.10;;;2.90;;
20619;SDS011;10469;42.720;23.252;2023-11-19T01:37:33;3.53;;;3.22;;
20619;SDS011;10469;42.720;23.252;2023-11-19T01:39:59;3.13;;;2.83;;
20619;SDS011;10469;42.720;23.252;2023-11-19T01:42:25;3.00;;;2.70;;
20619;SDS011;10469;42.720;23.252;2023-11-19T01:44:58;3.08;;;2.88;;
20619;SDS011;10469;42.720;23.252;2023-11-19T01:47:25;3.90;;;3.10;;
20619;SDS011;10469;42.720;23.252;2023-11-19T01:49:52;2.78;;;2.58;;
20619;SDS011;10469;42.720;23.252;2023-11-19T01:52:18;3.05;;;2.80;;
20619;SDS011;10469;42.720;23.252;2023-11-19T01:54:45;3.38;;;3.08;;
20619;SDS011;10469;42.720;23.252;2023-11-19T01:57:11;4.43;;;3.17;;
20619;SDS011;10469;42.720;23.252;2023-11-19T01:59:37;3.50;;;3.20;;
20619;SDS011;10469;42.720;23.252;2023-11-19T02:02:03;3.28;;;2.97;;
20619;SDS011;10469;42.720;23.252;2023-11-19T02:04:31;3.33;;;3.03;;
20619;SDS011;10469;42.720;23.252;2023-11-19T02:06:57;3.03;;;2.72;;
20619;SDS011;10469;42.720;23.252;2023-11-19T02:09:24;3.35;;;2.90;;
20619;SDS011;10469;42.720;23.252;2023-11-19T02:11:49;3.22;;;2.78;;
20619;SDS011;10469;42.720;23.252;2023-11-19T02:14:16;3.00;;;2.70;;
20619;SDS011;10469;42.720;23.252;2023-11-19T02:16:42;3.08;;;2.78;;
20619;SDS011;10469;42.720;23.252;2023-11-19T02:19:09;3.10;;;2.80;;
20619;SDS011;10469;42.720;23.252;2023-11-19T02:21:36;3.35;;;3.10;;
20619;SDS011;10469;42.720;23.252;2023-11-19T02:24:06;3.45;;;3.22;;
20619;SDS011;10469;42.720;23.252;2023-11-19T02:26:37;2.90;;;2.70;;
20619;SDS011;10469;42.720;23.252;2023-11-19T02:29:09;3.33;;;2.92;;
20619;SDS011;10469;42.720;23.252;2023-11-19T02:31:35;3.30;;;2.47;;
20619;SDS011;10469;42.720;23.252;2023-11-19T02:34:01;3.30;;;3.00;;
20619;SDS011;10469;42.720;23.252;2023-11-19T02:36:28;3.35;;;3.05;;
20619;SDS011;10469;42.720;23.252;2023-11-19T02:38:53;3.50;;;2.70;;
20619;SDS011;10469;42.720;23.252;2023-11-19T02:41:20;3.30;;;3.00;;
20619;SDS011;10469;42.720;23.252;2023-11-19T02:43:48;3.33;;;3.08;;
20619;SDS011;10469;42.720;23.252;2023-11-19T02:46:16;3.50;;;2.83;;
20619;SDS011;10469;42.720;23.252;2023-11-19T02:48:43;4.13;;;2.80;;
20619;SDS011;10469;42.720;23.252;2023-11-19T02:51:10;2.90;;;2.70;;
20619;SDS011;10469;42.720;23.252;2023-11-19T02:53:36;3.28;;;2.97;;
20619;SDS011;10469;42.720;23.252;2023-11-19T02:56:02;3.35;;;3.10;;
20619;SDS011;10469;42.720;23.252;2023-11-19T02:58:42;4.78;;;3.08;;
20619;SDS011;10469;42.720;23.252;2023-11-19T03:01:11;3.25;;;2.95;;
20619;SDS011;10469;42.720;23.252;2023-11-19T03:03:49;4.85;;;3.00;;
20619;SDS011;10469;42.720;23.252;2023-11-19T03:08:47;3.05;;;2.85;;
20619;SDS011;10469;42.720;23.252;2023-11-19T03:11:13;3.85;;;3.55;;
20619;SDS011;10469;42.720;23.252;2023-11-19T03:13:39;3.25;;;3.00;;
20619;SDS011;10469;42.720;23.252;2023-11-19T03:16:05;3.55;;;3.13;;
20619;SDS011;10469;42.720;23.252;2023-11-19T03:18:30;3.45;;;3.15;;
20619;SDS011;10469;42.720;23.252;2023-11-19T03:20:56;3.22;;;2.92;;
20619;SDS011;10469;42.720;23.252;2023-11-19T03:23:23;3.08;;;2.78;;
20619;SDS011;10469;42.720;23.252;2023-11-19T03:25:53;3.30;;;3.00;;
20619;SDS011;10469;42.720;23.252;2023-11-19T03:28:20;3.25;;;2.95;;
20619;SDS011;10469;42.720;23.252;2023-11-19T03:30:45;3.25;;;2.95;;
20619;SDS011;10469;42.720;23.252;2023-11-19T03:33:11;4.10;;;3.20;;
20619;SDS011;10469;42.720;23.252;2023-11-19T03:35:36;3.60;;;3.30;;
20619;SDS011;10469;42.720;23.252;2023-11-19T03:38:09;3.63;;;3.33;;
20619;SDS011;10469;42.720;23.252;2023-11-19T03:40:34;3.88;;;3.47;;
20619;SDS011;10469;42.720;23.252;2023-11-19T03:43:00;2.63;;;2.42;;
20619;SDS011;10469;42.720;23.252;2023-11-19T03:45:26;3.25;;;2.95;;
20619;SDS011;10469;42.720;23.252;2023-11-19T03:47:51;3.53;;;3.22;;
20619;SDS011;10469;42.720;23.252;2023-11-19T03:50:17;3.78;;;3.22;;
20619;SDS011;10469;42.720;23.252;2023-11-19T03:52:45;3.38;;;3.08;;
20619;SDS011;10469;42.720;23.252;2023-11-19T03:55:11;3.20;;;3.00;;
20619;SDS011;10469;42.720;23.252;2023-11-19T03:57:38;3.60;;;3.15;;
20619;SDS011;10469;42.720;23.252;2023-11-19T04:00:04;3.33;;;3.03;;
20619;SDS011;10469;42.720;23.252;2023-11-19T04:02:34;3.58;;;3.28;;
20619;SDS011;10469;42.720;23.252;2023-11-19T04:05:00;3.60;;;3.22;;
20619;SDS011;10469;42.720;23.252;2023-11-19T04:07:26;3.95;;;3.28;;
20619;SDS011;10469;42.720;23.252;2023-11-19T04:09:51;3.05;;;2.85;;
20619;SDS011;10469;42.720;23.252;2023-11-19T04:12:17;3.42;;;3.13;;
20619;SDS011;10469;42.720;23.252;2023-11-19T04:14:42;2.97;;;2.70;;
20619;SDS011;10469;42.720;23.252;2023-11-19T04:17:09;2.72;;;2.53;;
20619;SDS011;10469;42.720;23.252;2023-11-19T04:19:34;3.35;;;3.13;;
20619;SDS011;10469;42.720;23.252;2023-11-19T04:22:00;3.40;;;3.10;;
20619;SDS011;10469;42.720;23.252;2023-11-19T04:24:25;5.13;;;3.17;;
20619;SDS011;10469;42.720;23.252;2023-11-19T04:26:51;3.97;;;3.63;;
20619;SDS011;10469;42.720;23.252;2023-11-19T04:29:17;3.50;;;3.20;;
20619;SDS011;10469;42.720;23.252;2023-11-19T04:31:44;4.40;;;4.00;;
20619;SDS011;10469;42.720;23.252;2023-11-19T04:34:10;3.75;;;3.42;;
20619;SDS011;10469;42.720;23.252;2023-11-19T04:36:36;3.45;;;3.15;;
20619;SDS011;10469;42.720;23.252;2023-11-19T04:39:03;3.90;;;3.60;;
20619;SDS011;10469;42.720;23.252;2023-11-19T04:41:50;3.67;;;3.38;;
20619;SDS011;10469;42.720;23.252;2023-11-19T04:44:18;3.53;;;3.22;;
20619;SDS011;10469;42.720;23.252;2023-11-19T04:46:45;3.75;;;3.40;;
20619;SDS011;10469;42.720;23.252;2023-11-19T04:49:12;4.10;;;3.70;;
20619;SDS011;10469;42.720;23.252;2023-11-19T04:51:42;3.30;;;3.00;;
20619;SDS011;10469;42.720;23.252;2023-11-19T04:54:09;3.67;;;3.33;;
20619;SDS011;10469;42.720;23.252;2023-11-19T04:56:36;3.20;;;2.97;;
20619;SDS011;10469;42.720;23.252;2023-11-19T04:59:02;4.35;;;3.33;;
20619;SDS011;10469;42.720;23.252;2023-11-19T05:01:28;3.28;;;2.97;;
20619;SDS011;10469;42.720;23.252;2023-11-19T05:03:55;3.90;;;3.60;;
20619;SDS011;10469;42.720;23.252;2023-11-19T05:06:25;4.65;;;3.75;;
20619;SDS011;10469;42.720;23.252;2023-11-19T05:08:58;4.68;;;3.63;;
20619;SDS011;10469;42.720;23.252;2023-11-19T05:11:30;7.13;;;3.42;;
20619;SDS011;10469;42.720;23.252;2023-11-19T05:13:55;3.70;;;3.40;;
20619;SDS011;10469;42.720;23.252;2023-11-19T05:16:23;3.65;;;3.35;;
20619;SDS011;10469;42.720;23.252;2023-11-19T05:18:49;3.50;;;3.20;;
20619;SDS011;10469;42.720;23.252;2023-11-19T05:21:17;4.63;;;3.10;;
20619;SDS011;10469;42.720;23.252;2023-11-19T05:23:43;3.70;;;3.40;;
20619;SDS011;10469;42.720;23.252;2023-11-19T05:26:08;4.70;;;3.88;;
20619;SDS011;10469;42.720;23.252;2023-11-19T05:28:37;5.97;;;4.28;;
20619;SDS011;10469;42.720;23.252;2023-11-19T05:31:05;5.10;;;3.67;;
20619;SDS011;10469;42.720;23.252;2023-11-19T05:33:31;3.67;;;3.28;;
20619;SDS011;10469;42.720;23.252;2023-11-19T05:35:56;3.60;;;3.30;;
20619;SDS011;10469;42.720;23.252;2023-11-19T05:38:22;3.50;;;3.15;;
20619;SDS011;10469;42.720;23.252;2023-11-19T05:40:48;5.78;;;3.55;;
20619;SDS011;10469;42.720;23.252;2023-11-19T05:43:14;4.95;;;3.08;;
20619;SDS011;10469;42.720;23.252;2023-11-19T05:45:41;3.47;;;3.17;;
20619;SDS011;10469;42.720;23.252;2023-11-19T05:48:09;3.47;;;3.17;;
20619;SDS011;10469;42.720;23.252;2023-11-19T05:50:34;3.58;;;3.28;;
20619;SDS011;10469;42.720;23.252;2023-11-19T05:53:00;3.80;;;3.50;;
20619;SDS011;10469;42.720;23.252;2023-11-19T05:55:26;3.33;;;3.03;;
20619;SDS011;10469;42.720;23.252;2023-11-19T05:57:54;3.60;;;3.30;;
20619;SDS011;10469;42.720;23.252;2023-11-19T06:00:19;5.40;;;3.63;;
20619;SDS011;10469;42.720;23.252;2023-11-19T06:02:45;3.53;;;3.22;;
20619;SDS011;10469;42.720;23.252;2023-11-19T06:05:10;4.13;;;3.22;;
20619;SDS011;10469;42.720;23.252;2023-11-19T06:07:37;4.13;;;3.53;;
20619;SDS011;10469;42.720;23.252;2023-11-19T06:10:04;3.50;;;3.20;;
20619;SDS011;10469;42.720;23.252;2023-11-19T06:12:32;3.60;;;3.30;;
20619;SDS011;10469;42.720;23.252;2023-11-19T06:14:59;5.32;;;3.67;;
20619;SDS011;10469;42.720;23.252;2023-11-19T06:17:26;5.13;;;3.60;;
20619;SDS011;10469;42.720;23.252;2023-11-19T06:19:55;4.25;;;3.20;;
20619;SDS011;10469;42.720;23.252;2023-11-19T06:22:20;3.90;;;3.50;;
20619;SDS011;10469;42.720;23.252;2023-11-19T06:24:46;4.88;;;3.33;;
20619;SDS011;10469;42.720;23.252;2023-11-19T06:27:12;5.00;;;3.63;;
20619;SDS011;10469;42.720;23.252;2023-11-19T06:29:38;4.00;;;3.60;;
20619;SDS011;10469;42.720;23.252;2023-11-19T06:32:06;4.13;;;3.58;;
20619;SDS011;10469;42.720;23.252;2023-11-19T06:34:34;5.10;;;3.45;;
20619;SDS011;10469;42.720;23.252;2023-11-19T06:37:07;7.60;;;3.80;;
20619;SDS011;10469;42.720;23.252;2023-11-19T06:39:33;3.92;;;3.60;;
20619;SDS011;10469;42.720;23.252;2023-11-19T06:42:00;7.15;;;3.38;;
20619;SDS011;10469;42.720;23.252;2023-11-19T06:44:29;4.30;;;3.90;;
20619;SDS011;10469;42.720;23.252;2023-11-19T06:46:55;3.72;;;3.40;;
20619;SDS011;10469;42.720;23.252;2023-11-19T06:49:21;4.78;;;4.28;;
20619;SDS011;10469;42.720;23.252;2023-11-19T06:51:47;3.70;;;3.30;;
20619;SDS011;10469;42.720;23.252;2023-11-19T06:54:12;6.05;;;3.88;;
20619;SDS011;10469;42.720;23.252;2023-11-19T06:56:38;3.88;;;3.50;;
20619;SDS011;10469;42.720;23.252;2023-11-19T06:59:04;9.48;;;4.03;;
20619;SDS011;10469;42.720;23.252;2023-11-19T07:01:34;5.72;;;3.70;;
20619;SDS011;10469;42.720;23.252;2023-11-19T07:04:01;3.78;;;3.40;;
20619;SDS011;10469;42.720;23.252;2023-11-19T07:06:33;5.90;;;3.55;;
20619;SDS011;10469;42.720;23.252;2023-11-19T07:08:59;4.45;;;3.90;;
20619;SDS011;10469;42.720;23.252;2023-11-19T07:11:34;3.83;;;3.28;;
20619;SDS011;10469;42.720;23.252;2023-11-19T07:14:06;3.95;;;3.53;;
20619;SDS011;10469;42.720;23.252;2023-11-19T07:16:33;4.13;;;3.53;;
20619;SDS011;10469;42.720;23.252;2023-11-19T07:19:02;4.00;;;3.60;;
20619;SDS011;10469;42.720;23.252;2023-11-19T07:21:28;4.10;;;3.70;;
20619;SDS011;10469;42.720;23.252;2023-11-19T07:23:57;4.40;;;3.65;;
20619;SDS011;10469;42.720;23.252;2023-11-19T07:26:23;3.92;;;3.45;;
20619;SDS011;10469;42.720;23.252;2023-11-19T07:28:49;4.35;;;3.92;;
20619;SDS011;10469;42.720;23.252;2023-11-19T07:31:16;4.13;;;3.72;;
20619;SDS011;10469;42.720;23.252;2023-11-19T07:33:44;4.22;;;3.83;;
20619;SDS011;10469;42.720;23.252;2023-11-19T07:36:10;4.30;;;3.90;;
20619;SDS011;10469;42.720;23.252;2023-11-19T07:38:38;4.32;;;3.67;;
20619;SDS011;10469;42.720;23.252;2023-11-19T07:41:19;7.15;;;3.63;;
20619;SDS011;10469;42.720;23.252;2023-11-19T07:43:45;4.70;;;3.63;;
20619;SDS011;10469;42.720;23.252;2023-11-19T07:46:16;4.13;;;3.72;;
20619;SDS011;10469;42.720;23.252;2023-11-19T07:48:41;3.83;;;3.53;;
20619;SDS011;10469;42.720;23.252;2023-11-19T07:51:07;4.95;;;3.88;;
20619;SDS011;10469;42.720;23.252;2023-11-19T07:53:33;4.95;;;3.97;;
20619;SDS011;10469;42.720;23.252;2023-11-19T07:56:04;4.13;;;3.60;;
20619;SDS011;10469;42.720;23.252;2023-11-19T07:58:52;3.60;;;3.30;;
20619;SDS011;10469;42.720;23.252;2023-11-19T08:01:18;5.32;;;3.92;;
20619;SDS011;10469;42.720;23.252;2023-11-19T08:03:43;3.78;;;3.40;;
20619;SDS011;10469;42.720;23.252;2023-11-19T08:06:09;3.75;;;3.42;;
20619;SDS011;10469;42.720;23.252;2023-11-19T08:08:34;3.38;;;3.08;;
20619;SDS011;10469;42.720;23.252;2023-11-19T08:11:00;4.55;;;4.10;;
20619;SDS011;10469;42.720;23.252;2023-11-19T08:13:26;4.40;;;4.00;;
20619;SDS011;10469;42.720;23.252;2023-11-19T08:15:52;4.75;;;4.25;;
20619;SDS011;10469;42.720;23.252;2023-11-19T08:18:24;5.05;;;4.10;;
20619;SDS011;10469;42.720;23.252;2023-11-19T08:20:49;4.18;;;3.78;;
20619;SDS011;10469;42.720;23.252;2023-11-19T08:23:18;5.32;;;4.65;;
20619;SDS011;10469;42.720;23.252;2023-11-19T08:25:45;4.85;;;4.43;;
20619;SDS011;10469;42.720;23.252;2023-11-19T08:28:14;4.40;;;4.00;;
20619;SDS011;10469;42.720;23.252;2023-11-19T08:30:50;4.07;;;3.47;;
20619;SDS011;10469;42.720;23.252;2023-11-19T08:33:16;11.60;;;6.63;;
20619;SDS011;10469;42.720;23.252;2023-11-19T08:35:43;4.57;;;4.18;;
20619;SDS011;10469;42.720;23.252;2023-11-19T08:38:10;4.60;;;3.80;;
20619;SDS011;10469;42.720;23.252;2023-11-19T08:40:37;4.45;;;3.92;;
20619;SDS011;10469;42.720;23.252;2023-11-19T08:43:03;5.45;;;4.82;;
20619;SDS011;10469;42.720;23.252;2023-11-19T08:45:29;9.90;;;3.90;;
20619;SDS011;10469;42.720;23.252;2023-11-19T08:48:04;5.28;;;4.10;;
20619;SDS011;10469;42.720;23.252;2023-11-19T08:50:30;4.75;;;3.92;;
20619;SDS011;10469;42.720;23.252;2023-11-19T08:52:58;4.28;;;3.67;;
20619;SDS011;10469;42.720;23.252;2023-11-19T08:55:26;9.95;;;3.60;;
20619;SDS011;10469;42.720;23.252;2023-11-19T08:57:54;4.10;;;3.70;;
20619;SDS011;10469;42.720;23.252;2023-11-19T09:00:28;5.00;;;4.50;;
20619;SDS011;10469;42.720;23.252;2023-11-19T09:02:55;5.07;;;4.18;;
20619;SDS011;10469;42.720;23.252;2023-11-19T09:05:25;3.92;;;3.60;;
20619;SDS011;10469;42.720;23.252;2023-11-19T09:07:52;4.43;;;4.03;;
20619;SDS011;10469;42.720;23.252;2023-11-19T09:10:18;4.13;;;3.53;;
20619;SDS011;10469;42.720;23.252;2023-11-19T09:12:43;4.70;;;4.20;;
20619;SDS011;10469;42.720;23.252;2023-11-19T09:15:10;4.30;;;3.90;;
20619;SDS011;10469;42.720;23.252;2023-11-19T09:17:36;4.15;;;3.75;;
20619;SDS011;10469;42.720;23.252;2023-11-19T09:20:03;4.13;;;3.72;;
20619;SDS011;10469;42.720;23.252;2023-11-19T09:22:33;4.93;;;3.90;;
20619;SDS011;10469;42.720;23.252;2023-11-19T09:24:58;5.60;;;3.88;;
20619;SDS011;10469;42.720;23.252;2023-11-19T09:27:25;8.30;;;3.40;;
20619;SDS011;10469;42.720;23.252;2023-11-19T09:29:51;5.25;;;3.35;;
20619;SDS011;10469;42.720;23.252;2023-11-19T09:32:22;5.18;;;3.60;;
20619;SDS011;10469;42.720;23.252;2023-11-19T09:34:49;3.92;;;3.60;;
20619;SDS011;10469;42.720;23.252;2023-11-19T09:37:15;3.53;;;3.22;;
20619;SDS011;10469;42.720;23.252;2023-11-19T09:39:41;3.70;;;3.40;;
20619;SDS011;10469;42.720;23.252;2023-11-19T09:42:10;3.75;;;3.17;;
20619;SDS011;10469;42.720;23.252;2023-11-19T09:44:41;3.38;;;3.08;;
20619;SDS011;10469;42.720;23.252;2023-11-19T09:47:14;5.88;;;3.08;;
20619;SDS011;10469;42.720;23.252;2023-11-19T09:49:40;3.60;;;3.30;;
20619;SDS011;10469;42.720;23.252;2023-11-19T09:52:05;4.70;;;3.83;;
20619;SDS011;10469;42.720;23.252;2023-11-19T09:54:38;5.20;;;3.90;;
20619;SDS011;10469;42.720;23.252;2023-11-19T09:57:03;6.00;;;3.60;;
20619;SDS011;10469;42.720;23.252;2023-11-19T09:59:30;3.88;;;3.50;;
20619;SDS011;10469;42.720;23.252;2023-11-19T10:01:56;4.05;;;3.38;;
20619;SDS011;10469;42.720;23.252;2023-11-19T10:04:22;3.17;;;2.83;;
20619;SDS011;10469;42.720;23.252;2023-11-19T10:06:52;3.55;;;3.25;;
20619;SDS011;10469;42.720;23.252;2023-11-19T10:09:17;4.45;;;3.13;;
20619;SDS011;10469;42.720;23.252;2023-11-19T10:11:44;3.78;;;3.42;;
20619;SDS011;10469;42.720;23.252;2023-11-19T10:14:09;7.00;;;3.30;;
20619;SDS011;10469;42.720;23.252;2023-11-19T10:16:35;3.60;;;3.30;;
20619;SDS011;10469;42.720;23.252;2023-11-19T10:19:01;4.25;;;3.40;;
20619;SDS011;10469;42.720;23.252;2023-11-19T10:21:27;3.50;;;3.20;;
20619;SDS011;10469;42.720;23.252;2023-11-19T10:23:54;3.80;;;3.40;;
20619;SDS011;10469;42.720;23.252;2023-11-19T10:26:26;3.65;;;3.35;;
20619;SDS011;10469;42.720;23.252;2023-11-19T10:28:53;6.35;;;3.35;;
20619;SDS011;10469;42.720;23.252;2023-11-19T10:31:21;7.22;;;3.83;;
20619;SDS011;10469;42.720;23.252;2023-11-19T10:33:52;3.38;;;3.08;;
20619;SDS011;10469;42.720;23.252;2023-11-19T10:36:19;3.45;;;3.15;;
20619;SDS011;10469;42.720;23.252;2023-11-19T10:38:54;4.20;;;3.80;;
20619;SDS011;10469;42.720;23.252;2023-11-19T10:41:30;4.07;;;3.58;;
20619;SDS011;10469;42.720;23.252;2023-11-19T10:43:57;5.53;;;2.95;;
20619;SDS011;10469;42.720;23.252;2023-11-19T10:46:36;3.22;;;2.90;;
20619;SDS011;10469;42.720;23.252;2023-11-19T10:49:06;3.08;;;2.78;;
20619;SDS011;10469;42.720;23.252;2023-11-19T10:51:40;3.90;;;3.20;;
20619;SDS011;10469;42.720;23.252;2023-11-19T10:57:07;6.50;;;3.58;;
20619;SDS011;10469;42.720;23.252;2023-11-19T10:59:56;3.28;;;2.67;;
20619;SDS011;10469;42.720;23.252;2023-11-19T11:02:45;3.85;;;3.30;;
20619;SDS011;10469;42.720;23.252;2023-11-19T11:05:24;3.65;;;3.35;;
20619;SDS011;10469;42.720;23.252;2023-11-19T11:07:51;3.03;;;2.67;;
20619;SDS011;10469;42.720;23.252;2023-11-19T11:10:25;3.72;;;3.25;;
20619;SDS011;10469;42.720;23.252;2023-11-19T11:12:52;6.57;;;2.80;;
20619;SDS011;10469;42.720;23.252;2023-11-19T11:15:24;4.45;;;3.25;;
20619;SDS011;10469;42.720;23.252;2023-11-19T11:17:59;3.17;;;2.88;;
20619;SDS011;10469;42.720;23.252;2023-11-19T11:20:32;4.40;;;3.25;;
20619;SDS011;10469;42.720;23.252;2023-11-19T11:39:26;3.05;;;2.80;;
20619;SDS011;10469;42.720;23.252;2023-11-19T11:50:19;2.92;;;2.65;;
20619;SDS011;10469;42.720;23.252;2023-11-19T11:58:17;3.47;;;2.63;;
20619;SDS011;10469;42.720;23.252;2023-11-19T12:00:43;2.90;;;2.70;;
20619;SDS011;10469;42.720;23.252;2023-11-19T12:03:08;5.10;;;3.10;;
20619;SDS011;10469;42.720;23.252;2023-11-19T12:05:43;4.38;;;3.42;;
20619;SDS011;10469;42.720;23.252;2023-11-19T12:08:11;2.90;;;2.70;;
20619;SDS011;10469;42.720;23.252;2023-11-19T12:10:44;13.55;;;2.92;;
20619;SDS011;10469;42.720;23.252;2023-11-19T12:13:18;4.50;;;2.83;;
20619;SDS011;10469;42.720;23.252;2023-11-19T12:18:26;3.72;;;2.72;;
20619;SDS011;10469;42.720;23.252;2023-11-19T12:20:53;3.38;;;2.38;;
20619;SDS011;10469;42.720;23.252;2023-11-19T12:23:20;5.15;;;3.35;;
20619;SDS011;10469;42.720;23.252;2023-11-19T12:25:48;3.70;;;3.38;;
20619;SDS011;10469;42.720;23.252;2023-11-19T12:28:14;4.05;;;3.60;;
20619;SDS011;10469;42.720;23.252;2023-11-19T12:30:44;3.65;;;3.35;;
20619;SDS011;10469;42.720;23.252;2023-11-19T12:33:15;3.67;;;2.72;;
20619;SDS011;10469;42.720;23.252;2023-11-19T12:35:42;3.38;;;3.08;;
20619;SDS011;10469;42.720;23.252;2023-11-19T12:38:08;8.90;;;3.40;;
20619;SDS011;10469;42.720;23.252;2023-11-19T12:40:46;10.43;;;3.42;;
20619;SDS011;10469;42.720;23.252;2023-11-19T12:43:21;6.82;;;3.50;;
20619;SDS011;10469;42.720;23.252;2023-11-19T12:45:47;6.20;;;3.40;;
20619;SDS011;10469;42.720;23.252;2023-11-19T12:48:14;4.20;;;3.80;;
20619;SDS011;10469;42.720;23.252;2023-11-19T12:50:56;4.53;;;4.13;;
20619;SDS011;10469;42.720;23.252;2023-11-19T12:53:24;6.13;;;4.35;;
20619;SDS011;10469;42.720;23.252;2023-11-19T12:55:52;4.82;;;3.83;;
20619;SDS011;10469;42.720;23.252;2023-11-19T12:58:30;5.80;;;4.00;;
20619;SDS011;10469;42.720;23.252;2023-11-19T13:01:05;4.43;;;4.00;;
20619;SDS011;10469;42.720;23.252;2023-11-19T13:03:33;13.25;;;3.95;;
20619;SDS011;10469;42.720;23.252;2023-11-19T13:06:03;6.80;;;4.20;;
20619;SDS011;10469;42.720;23.252;2023-11-19T13:11:33;5.22;;;3.30;;
20619;SDS011;10469;42.720;23.252;2023-11-19T13:14:02;4.55;;;3.97;;
20619;SDS011;10469;42.720;23.252;2023-11-19T13:16:30;4.40;;;3.97;;
20619;SDS011;10469;42.720;23.252;2023-11-19T13:18:56;5.00;;;3.90;;
20619;SDS011;10469;42.720;23.252;2023-11-19T13:21:22;5.57;;;3.97;;
20619;SDS011;10469;42.720;23.252;2023-11-19T13:23:48;5.00;;;3.15;;
20619;SDS011;10469;42.720;23.252;2023-11-19T13:26:14;7.65;;;3.25;;
20619;SDS011;10469;42.720;23.252;2023-11-19T13:28:39;6.07;;;3.40;;
20619;SDS011;10469;42.720;23.252;2023-11-19T13:31:05;3.75;;;3.33;;
20619;SDS011;10469;42.720;23.252;2023-11-19T13:33:31;4.10;;;3.55;;
20619;SDS011;10469;42.720;23.252;2023-11-19T13:35:57;6.38;;;3.45;;
20619;SDS011;10469;42.720;23.252;2023-11-19T13:38:22;5.10;;;3.90;;
20619;SDS011;10469;42.720;23.252;2023-11-19T13:40:49;5.25;;;3.90;;
20619;SDS011;10469;42.720;23.252;2023-11-19T13:43:14;5.43;;;4.20;;
20619;SDS011;10469;42.720;23.252;2023-11-19T13:45:41;3.60;;;3.22;;
20619;SDS011;10469;42.720;23.252;2023-11-19T13:48:07;6.25;;;4.15;;
20619;SDS011;10469;42.720;23.252;2023-11-19T13:50:32;8.75;;;3.80;;
20619;SDS011;10469;42.720;23.252;2023-11-19T13:52:59;4.82;;;3.85;;
20619;SDS011;10469;42.720;23.252;2023-11-19T13:55:24;4.03;;;3.60;;
20619;SDS011;10469;42.720;23.252;2023-11-19T13:57:50;6.80;;;3.97;;
20619;SDS011;10469;42.720;23.252;2023-11-19T14:00:16;3.97;;;3.58;;
20619;SDS011;10469;42.720;23.252;2023-11-19T14:02:46;3.60;;;3.10;;
20619;SDS011;10469;42.720;23.252;2023-11-19T14:05:13;3.83;;;3.45;;
20619;SDS011;10469;42.720;23.252;2023-11-19T14:07:40;4.28;;;3.13;;
20619;SDS011;10469;42.720;23.252;2023-11-19T14:10:06;4.53;;;3.47;;
20619;SDS011;10469;42.720;23.252;2023-11-19T14:12:39;7.40;;;3.58;;
20619;SDS011;10469;42.720;23.252;2023-11-19T14:15:05;6.72;;;3.70;;
20619;SDS011;10469;42.720;23.252;2023-11-19T14:17:52;3.95;;;3.55;;
20619;SDS011;10469;42.720;23.252;2023-11-19T14:20:17;4.85;;;3.97;;
20619;SDS011;10469;42.720;23.252;2023-11-19T14:22:43;4.18;;;3.78;;
20619;SDS011;10469;42.720;23.252;2023-11-19T14:25:10;3.97;;;3.25;;
20619;SDS011;10469;42.720;23.252;2023-11-19T14:27:41;6.22;;;3.90;;
20619;SDS011;10469;42.720;23.252;2023-11-19T14:30:09;4.55;;;3.78;;
20619;SDS011;10469;42.720;23.252;2023-11-19T14:32:41;4.40;;;3.85;;
20619;SDS011;10469;42.720;23.252;2023-11-19T14:35:09;4.50;;;4.07;;
20619;SDS011;10469;42.720;23.252;2023-11-19T14:37:35;5.60;;;4.40;;
20619;SDS011;10469;42.720;23.252;2023-11-19T14:40:01;5.28;;;4.38;;
20619;SDS011;10469;42.720;23.252;2023-11-19T14:42:32;6.80;;;3.90;;
20619;SDS011;10469;42.720;23.252;2023-11-19T14:44:57;7.95;;;4.07;;
20619;SDS011;10469;42.720;23.252;2023-11-19T14:47:26;4.60;;;4.10;;
20619;SDS011;10469;42.720;23.252;2023-11-19T14:49:52;5.07;;;4.25;;
20619;SDS011;10469;42.720;23.252;2023-11-19T14:52:17;8.32;;;4.50;;
20619;SDS011;10469;42.720;23.252;2023-11-19T14:54:43;12.63;;;4.63;;
20619;SDS011;10469;42.720;23.252;2023-11-19T14:57:10;4.65;;;4.20;;
20619;SDS011;10469;42.720;23.252;2023-11-19T14:59:36;9.80;;;4.43;;
20619;SDS011;10469;42.720;23.252;2023-11-19T15:02:03;5.57;;;4.40;;
20619;SDS011;10469;42.720;23.252;2023-11-19T15:04:30;6.82;;;4.50;;
20619;SDS011;10469;42.720;23.252;2023-11-19T15:06:57;6.25;;;5.03;;
20619;SDS011;10469;42.720;23.252;2023-11-19T15:09:23;6.43;;;5.70;;
20619;SDS011;10469;42.720;23.252;2023-11-19T15:11:49;8.55;;;5.57;;
20619;SDS011;10469;42.720;23.252;2023-11-19T15:14:16;7.18;;;5.20;;
20619;SDS011;10469;42.720;23.252;2023-11-19T15:16:45;9.35;;;5.03;;
20619;SDS011;10469;42.720;23.252;2023-11-19T15:19:12;7.63;;;5.65;;